createdAt,value
2019-06-07T00:01:52.213Z,7.03
2019-06-07T00:04:22.274Z,6.67
2019-06-07T00:06:52.211Z,5.97
2019-06-07T00:09:22.851Z,5.93
2019-06-07T00:11:52.869Z,6.93
2019-06-07T00:14:22.830Z,5.77
2019-06-07T00:16:52.739Z,6.67
2019-06-07T00:19:22.641Z,6.43
2019-06-07T00:22:15.703Z,7.40
2019-06-07T00:24:24.213Z,7.13
2019-06-07T00:26:59.005Z,7.90
2019-06-07T00:29:25.759Z,8.30
2019-06-07T00:31:55.733Z,8.63
2019-06-07T00:34:25.644Z,8.30
2019-06-07T00:36:55.573Z,6.50
2019-06-07T00:39:26.233Z,7.23
2019-06-07T00:41:56.405Z,6.43
2019-06-07T00:44:26.321Z,9.57
2019-06-07T00:46:56.269Z,10.17
2019-06-07T00:49:41.016Z,11.80
2019-06-07T00:51:57.853Z,9.97
2019-06-07T00:54:27.823Z,10.73
2019-06-07T00:56:57.719Z,12.27
2019-06-07T00:59:29.458Z,10.87
2019-06-07T01:01:59.279Z,10.40
2019-06-07T01:04:29.205Z,10.30
2019-06-07T01:06:59.125Z,12.00
2019-06-07T01:09:29.088Z,11.03
2019-06-07T01:11:59.000Z,10.90
2019-06-07T01:14:29.064Z,11.57
2019-06-07T01:17:20.196Z,12.90
2019-06-07T01:19:30.676Z,13.10
2019-06-07T01:22:00.622Z,11.43
2019-06-07T01:24:30.550Z,17.37
2019-06-07T01:27:00.477Z,12.17
2019-06-07T01:29:31.190Z,12.37
2019-06-07T01:32:01.299Z,13.30
2019-06-07T01:34:31.243Z,14.07
2019-06-07T01:37:01.210Z,14.60
2019-06-07T01:39:32.026Z,14.57
2019-06-07T01:42:02.106Z,13.87
2019-06-07T01:44:32.033Z,14.60
2019-06-07T01:47:02.002Z,13.67
2019-06-07T01:49:31.956Z,12.33
2019-06-07T01:52:01.913Z,12.50
2019-06-07T01:57:03.500Z,14.73
2019-06-07T01:59:33.406Z,15.77
2019-06-07T02:02:03.355Z,13.63
2019-06-07T02:04:33.706Z,13.77
2019-06-07T02:07:03.720Z,13.57
2019-06-07T02:09:33.738Z,13.27
2019-06-07T02:12:24.718Z,16.33
2019-06-07T02:14:35.309Z,13.10
2019-06-07T02:17:05.412Z,13.70
2019-06-07T02:19:35.294Z,13.90
2019-06-07T02:22:05.203Z,13.87
2019-06-07T02:24:36.234Z,14.23
2019-06-07T02:27:06.360Z,14.53
2019-06-07T02:29:36.279Z,13.30
2019-06-07T02:32:06.202Z,14.60
2019-06-07T02:34:39.497Z,15.43
2019-06-07T02:37:07.813Z,14.10
2019-06-07T02:39:40.861Z,15.13
2019-06-07T02:42:09.365Z,15.30
2019-06-07T02:44:40.339Z,16.10
2019-06-07T02:47:10.497Z,15.57
2019-06-07T02:49:42.038Z,14.63
2019-06-07T02:52:12.063Z,17.00
2019-06-07T02:54:41.954Z,14.33
2019-06-07T02:57:11.886Z,13.90
2019-06-07T03:00:05.537Z,12.97
2019-06-07T03:02:13.420Z,13.47
2019-06-07T03:04:44.981Z,12.90
2019-06-07T03:07:15.963Z,13.23
2019-06-07T03:09:46.877Z,12.90
2019-06-07T03:12:18.445Z,14.83
2019-06-07T03:14:48.628Z,14.93
2019-06-07T03:17:38.364Z,12.83
2019-06-07T03:20:09.702Z,13.60
2019-06-07T03:22:42.255Z,16.30
2019-06-07T03:25:15.219Z,13.37
2019-06-07T03:27:49.924Z,13.07
2019-06-07T03:30:38.344Z,13.80
2019-06-07T03:32:48.771Z,11.57
2019-06-07T03:35:18.868Z,12.60
2019-06-07T03:37:48.833Z,10.67
2019-06-07T03:40:18.710Z,11.17
2019-06-07T03:42:48.683Z,11.30
2019-06-07T03:45:18.611Z,12.03
2019-06-07T03:47:48.543Z,10.90
2019-06-07T03:50:18.575Z,12.40
2019-06-07T03:52:48.489Z,12.33
2019-06-07T03:55:18.425Z,12.87
2019-06-07T03:58:30.234Z,11.27
2019-06-07T04:00:20.580Z,11.60
2019-06-07T04:02:50.517Z,13.90
2019-06-07T04:05:20.438Z,11.90
2019-06-07T04:07:50.393Z,11.77
2019-06-07T04:10:42.764Z,11.10
2019-06-07T04:12:51.941Z,11.00
2019-06-07T04:15:21.909Z,11.30
2019-06-07T04:18:01.880Z,10.70
2019-06-07T04:20:23.487Z,10.60
2019-06-07T04:22:53.368Z,9.37
2019-06-07T04:25:23.283Z,9.47
2019-06-07T04:27:53.184Z,9.60
2019-06-07T04:30:41.515Z,8.50
2019-06-07T04:33:11.021Z,9.43
2019-06-07T04:35:42.914Z,8.37
2019-06-07T04:38:13.260Z,9.43
2019-06-07T04:40:43.612Z,10.20
2019-06-07T04:43:13.922Z,8.90
2019-06-07T04:45:50.936Z,11.80
2019-06-07T04:48:15.469Z,9.97
2019-06-07T04:50:45.400Z,9.07
2019-06-07T04:53:15.321Z,9.33
2019-06-07T04:55:45.229Z,9.80
2019-06-07T04:58:15.184Z,10.17
2019-06-07T05:00:52.375Z,10.30
2019-06-07T05:03:16.851Z,11.03
2019-06-07T05:05:46.841Z,10.17
2019-06-07T05:08:27.500Z,10.63
2019-06-07T05:10:48.489Z,9.30
2019-06-07T05:13:18.451Z,10.70
2019-06-07T05:15:48.389Z,10.20
2019-06-07T05:18:18.279Z,9.20
2019-06-07T05:20:48.219Z,9.57
2019-06-07T05:23:59.840Z,9.33
2019-06-07T05:25:50.186Z,11.63
2019-06-07T05:28:20.162Z,9.80
2019-06-07T05:31:03.907Z,9.53
2019-06-07T05:33:21.702Z,10.17
2019-06-07T05:35:51.663Z,10.13
2019-06-07T05:38:21.553Z,9.60
2019-06-07T05:40:51.488Z,10.27
2019-06-07T05:43:28.658Z,9.47
2019-06-07T05:45:58.587Z,10.10
2019-06-07T05:48:28.532Z,9.50
2019-06-07T05:50:58.462Z,9.23
2019-06-07T05:53:28.383Z,9.43
2019-06-07T05:55:58.307Z,9.70
2019-06-07T05:58:28.228Z,9.20
2019-06-07T06:01:40.936Z,9.63
2019-06-07T06:03:29.754Z,8.57
2019-06-07T06:05:59.650Z,10.43
2019-06-07T06:08:29.583Z,8.30
2019-06-07T06:10:59.531Z,8.80
2019-06-07T06:13:29.435Z,8.73
2019-06-07T06:16:01.942Z,8.80
2019-06-07T06:18:30.951Z,8.20
2019-06-07T06:21:16.234Z,8.37
2019-06-07T06:23:32.558Z,9.77
2019-06-07T06:26:02.423Z,9.03
2019-06-07T06:28:32.321Z,8.47
2019-06-07T06:31:02.303Z,9.43
2019-06-07T06:33:34.855Z,7.70
2019-06-07T06:36:03.852Z,8.43
2019-06-07T06:38:33.828Z,9.00
2019-06-07T06:41:15.241Z,8.83
2019-06-07T06:43:35.392Z,8.07
2019-06-07T06:46:05.551Z,8.33
2019-06-07T06:48:35.476Z,8.47
2019-06-07T06:51:05.363Z,7.23
2019-06-07T06:53:35.288Z,8.67
2019-06-07T06:56:05.207Z,8.00
2019-06-07T06:59:18.703Z,8.50
2019-06-07T07:01:07.329Z,8.00
2019-06-07T07:04:01.929Z,8.33
2019-06-07T07:06:25.110Z,8.00
2019-06-07T07:08:43.631Z,7.47
2019-06-07T07:11:13.710Z,7.43
2019-06-07T07:13:45.317Z,7.73
2019-06-07T07:16:15.270Z,7.93
2019-06-07T07:18:47.561Z,8.97
2019-06-07T07:21:16.782Z,7.77
2019-06-07T07:24:07.852Z,7.97
2019-06-07T07:26:18.374Z,21.03
2019-06-07T07:28:51.796Z,7.90
2019-06-07T07:31:19.920Z,7.87
2019-06-07T07:36:38.128Z,7.90
2019-06-07T07:39:00.425Z,7.22
2019-06-07T07:41:24.666Z,7.60
2019-06-07T07:44:04.711Z,6.63
2019-06-07T07:46:29.818Z,7.17
2019-06-07T07:48:57.801Z,6.73
2019-06-07T07:51:27.710Z,6.00
2019-06-07T07:54:10.270Z,6.60
2019-06-07T07:56:29.219Z,6.80
2019-06-07T07:59:01.644Z,6.63
2019-06-07T08:01:30.846Z,7.40
2019-06-07T08:04:00.815Z,7.40
2019-06-07T08:06:30.717Z,6.87
2019-06-07T08:09:00.638Z,7.30
2019-06-07T08:11:30.584Z,6.10
2019-06-07T08:14:00.494Z,6.50
2019-06-07T08:16:30.415Z,6.00
2019-06-07T08:19:03.887Z,6.10
2019-06-07T08:21:32.020Z,5.60
2019-06-07T08:24:05.135Z,6.53
2019-06-07T08:26:33.497Z,6.83
2019-06-07T08:29:03.539Z,7.20
2019-06-07T08:31:33.435Z,6.93
2019-06-07T08:34:03.606Z,7.33
2019-06-07T08:36:41.999Z,6.33
2019-06-07T08:39:07.989Z,7.90
2019-06-07T08:41:53.397Z,6.20
2019-06-07T08:44:22.698Z,6.20
2019-06-07T08:46:41.478Z,6.50
2019-06-07T08:49:11.386Z,7.37
2019-06-07T08:51:41.294Z,6.87
2019-06-07T08:54:22.152Z,6.60
2019-06-07T08:56:43.642Z,7.07
2019-06-07T08:59:13.638Z,5.70
2019-06-07T09:01:43.526Z,6.63
2019-06-07T09:04:13.444Z,7.27
2019-06-07T09:09:15.021Z,6.77
2019-06-07T09:11:44.912Z,8.10
2019-06-07T09:14:14.832Z,7.93
2019-06-07T09:16:44.752Z,8.83
2019-06-07T09:19:14.675Z,7.63
2019-06-07T09:21:44.614Z,7.90
2019-06-07T09:24:14.584Z,9.30
2019-06-07T09:26:44.508Z,8.50
2019-06-07T09:29:14.528Z,8.90
2019-06-07T09:31:52.993Z,10.33
2019-06-07T09:34:16.055Z,10.23
2019-06-07T09:36:45.985Z,30.70
2019-06-07T09:39:15.920Z,11.10
2019-06-07T09:41:50.085Z,7.97
2019-06-07T09:44:24.636Z,10.23
2019-06-07T09:47:07.912Z,19.10
2019-06-07T09:49:31.551Z,18.17
2019-06-07T09:51:52.400Z,9.70
2019-06-07T09:55:04.073Z,10.17
2019-06-07T09:56:54.018Z,9.10
2019-06-07T09:59:23.976Z,7.70
2019-06-07T10:01:53.885Z,10.03
2019-06-07T10:04:31.353Z,9.73
2019-06-07T10:06:55.658Z,9.13
2019-06-07T10:10:09.485Z,9.23
2019-06-07T10:11:58.178Z,9.57
2019-06-07T10:14:28.179Z,9.60
2019-06-07T10:16:58.804Z,9.90
2019-06-07T10:19:28.847Z,7.73
2019-06-07T10:21:59.162Z,9.13
2019-06-07T10:24:29.149Z,8.30
2019-06-07T10:27:37.290Z,8.40
2019-06-07T10:30:12.607Z,8.03
2019-06-07T10:32:42.542Z,7.53
2019-06-07T10:35:16.182Z,7.17
2019-06-07T10:37:44.291Z,7.43
2019-06-07T10:40:16.090Z,7.00
2019-06-07T10:42:46.009Z,7.13
2019-06-07T10:45:16.143Z,7.97
2019-06-07T10:47:46.067Z,5.77
2019-06-07T10:50:16.095Z,6.60
2019-06-07T10:52:46.022Z,6.37
2019-06-07T10:55:16.436Z,13.33
2019-06-07T10:57:46.462Z,13.30
2019-06-07T11:00:16.633Z,12.20
2019-06-07T11:02:46.599Z,25.57
2019-06-07T11:05:16.913Z,6.73
2019-06-07T11:07:46.841Z,14.20
2019-06-07T11:10:20.025Z,8.27
2019-06-07T11:12:48.934Z,6.80
2019-06-07T11:15:18.976Z,8.43
2019-06-07T11:17:48.900Z,17.27
2019-06-07T11:20:19.029Z,9.53
2019-06-07T11:22:49.018Z,17.70
2019-06-07T11:25:18.924Z,13.10
2019-06-07T11:27:48.855Z,15.47
2019-06-07T11:30:19.282Z,12.40
2019-06-07T11:32:49.217Z,16.00
2019-06-07T11:35:19.227Z,7.13
2019-06-07T11:37:49.129Z,7.90
2019-06-07T11:40:35.116Z,12.67
2019-06-07T11:42:52.920Z,13.33
2019-06-07T11:45:22.795Z,11.97
2019-06-07T11:47:52.695Z,8.57
2019-06-07T11:50:22.613Z,6.03
2019-06-07T11:52:52.518Z,9.57
2019-06-07T11:55:22.435Z,7.13
2019-06-07T11:57:52.377Z,9.60
2019-06-07T12:00:23.067Z,10.40
2019-06-07T12:02:52.959Z,6.23
2019-06-07T12:05:22.880Z,4.90
2019-06-07T12:07:52.799Z,5.77
2019-06-07T12:10:23.286Z,6.20
2019-06-07T12:12:53.238Z,5.97
2019-06-07T12:15:23.171Z,5.70
2019-06-07T12:17:53.134Z,5.27
2019-06-07T12:20:23.036Z,5.37
2019-06-07T12:22:52.963Z,5.33
2019-06-07T12:25:24.942Z,5.70
2019-06-07T12:27:54.625Z,5.90
2019-06-07T12:30:27.887Z,5.10
2019-06-07T12:32:56.262Z,6.43
2019-06-07T12:35:26.195Z,5.10
2019-06-07T12:37:56.190Z,6.30
2019-06-07T12:40:31.650Z,7.47
2019-06-07T12:42:57.930Z,5.03
2019-06-07T12:45:43.429Z,4.80
2019-06-07T12:47:59.508Z,5.30
2019-06-07T12:50:42.727Z,5.23
2019-06-07T12:53:01.059Z,4.73
2019-06-07T12:55:31.093Z,4.90
2019-06-07T12:58:00.999Z,4.53
2019-06-07T13:00:31.070Z,4.93
2019-06-07T13:03:01.002Z,5.33
2019-06-07T13:05:30.917Z,5.30
2019-06-07T13:08:00.906Z,4.57
2019-06-07T13:10:30.794Z,5.87
2019-06-07T13:13:00.710Z,5.63
2019-06-07T13:15:30.653Z,5.57
2019-06-07T13:18:00.576Z,5.53
2019-06-07T13:20:30.471Z,4.50
2019-06-07T13:23:00.386Z,6.87
2019-06-07T13:25:45.651Z,4.67
2019-06-07T13:28:01.951Z,5.43
2019-06-07T13:30:31.924Z,6.00
2019-06-07T13:33:01.900Z,5.13
2019-06-07T13:35:31.823Z,5.00
2019-06-07T13:38:01.802Z,5.63
2019-06-07T13:40:31.753Z,5.07
2019-06-07T13:43:01.675Z,5.00
2019-06-07T13:45:31.672Z,5.17
2019-06-07T13:48:01.606Z,4.27
2019-06-07T13:50:31.518Z,5.03
2019-06-07T13:53:01.454Z,5.40
2019-06-07T13:55:31.403Z,5.53
2019-06-07T13:58:01.338Z,4.87
2019-06-07T14:00:31.272Z,5.50
2019-06-07T14:03:01.266Z,5.03
2019-06-07T14:05:31.216Z,5.63
2019-06-07T14:08:01.246Z,4.37
2019-06-07T14:10:31.332Z,5.83
2019-06-07T14:13:01.264Z,4.47
2019-06-07T14:15:34.122Z,4.00
2019-06-07T14:18:02.766Z,5.40
2019-06-07T14:20:34.625Z,6.90
2019-06-07T14:23:04.290Z,5.47
2019-06-07T14:25:34.201Z,5.23
2019-06-07T14:28:11.093Z,4.70
2019-06-07T14:30:35.750Z,4.93
2019-06-07T14:33:05.654Z,18.00
2019-06-07T14:35:35.587Z,6.37
2019-06-07T14:38:05.537Z,6.27
2019-06-07T14:40:35.475Z,10.33
2019-06-07T14:43:05.397Z,4.97
2019-06-07T14:45:35.316Z,4.43
2019-06-07T14:48:05.247Z,5.70
2019-06-07T14:50:35.165Z,5.10
2019-06-07T14:53:05.126Z,6.10
2019-06-07T14:55:35.188Z,5.43
2019-06-07T14:58:05.201Z,4.80
2019-06-07T15:00:42.422Z,7.50
2019-06-07T15:03:12.446Z,5.17
2019-06-07T15:05:42.341Z,6.33
2019-06-07T15:08:12.312Z,5.20
2019-06-07T15:10:42.205Z,5.63
2019-06-07T15:13:12.124Z,5.03
2019-06-07T15:15:42.046Z,8.73
2019-06-07T15:18:12.009Z,5.40
2019-06-07T15:20:42.017Z,4.70
2019-06-07T15:23:11.952Z,4.93
2019-06-07T15:25:41.902Z,4.90
2019-06-07T15:28:11.822Z,5.40
2019-06-07T15:30:41.838Z,5.73
2019-06-07T15:33:11.702Z,5.17
2019-06-07T15:35:41.633Z,4.77
2019-06-07T15:38:11.496Z,6.30
2019-06-07T15:40:41.418Z,5.50
2019-06-07T15:43:11.344Z,5.37
2019-06-07T15:45:41.236Z,5.43
2019-06-07T15:48:11.180Z,5.03
2019-06-07T15:50:41.112Z,5.30
2019-06-07T15:53:11.036Z,6.30
2019-06-07T15:55:45.403Z,7.70
2019-06-07T15:58:12.975Z,6.07
2019-06-07T16:00:42.899Z,10.43
2019-06-07T16:03:12.843Z,6.30
2019-06-07T16:05:43.250Z,5.50
2019-06-07T16:08:13.295Z,5.97
2019-06-07T16:10:43.247Z,5.83
2019-06-07T16:13:13.158Z,5.50
2019-06-07T16:15:43.323Z,6.20
2019-06-07T16:18:13.290Z,6.00
2019-06-07T16:20:43.763Z,5.67
2019-06-07T16:23:13.783Z,6.60
2019-06-07T16:25:44.389Z,5.63
2019-06-07T16:28:14.413Z,6.00
2019-06-07T16:30:44.829Z,6.97
2019-06-07T16:33:14.805Z,6.40
2019-06-07T16:35:45.337Z,6.30
2019-06-07T16:38:15.304Z,6.33
2019-06-07T16:40:45.235Z,6.20
2019-06-07T16:43:17.926Z,6.27
2019-06-07T16:45:46.786Z,5.63
2019-06-07T16:48:16.765Z,5.80
2019-06-07T16:50:46.689Z,5.40
2019-06-07T16:53:16.774Z,6.03
2019-06-07T16:55:45.641Z,5.07
2019-06-07T16:58:15.343Z,6.90
2019-06-07T17:00:46.422Z,5.43
2019-06-07T17:03:16.363Z,5.17
2019-06-07T17:05:48.905Z,4.93
2019-06-07T17:08:17.907Z,5.23
2019-06-07T17:10:49.110Z,5.67
2019-06-07T17:13:32.409Z,5.97
2019-06-07T17:15:50.715Z,6.10
2019-06-07T17:18:20.643Z,6.20
2019-06-07T17:20:50.559Z,5.97
2019-06-07T17:23:20.495Z,6.47
2019-06-07T17:25:50.413Z,6.77
2019-06-07T17:28:20.330Z,6.60
2019-06-07T17:30:50.471Z,7.27
2019-06-07T17:33:20.419Z,6.10
2019-06-07T17:35:50.696Z,5.97
2019-06-07T17:38:20.706Z,8.33
2019-06-07T17:40:51.212Z,7.03
2019-06-07T17:43:21.111Z,6.30
2019-06-07T17:45:51.579Z,5.93
2019-06-07T17:48:23.974Z,6.70
2019-06-07T17:50:53.115Z,5.90
2019-06-07T17:53:23.014Z,5.63
2019-06-07T17:55:52.920Z,6.20
2019-06-07T17:58:22.861Z,6.80
2019-06-07T18:00:53.266Z,6.27
2019-06-07T18:03:23.375Z,6.63
2019-06-07T18:05:54.364Z,6.73
2019-06-07T18:08:25.829Z,7.47
2019-06-07T18:10:55.790Z,6.87
2019-06-07T18:13:25.762Z,6.40
2019-06-07T18:15:59.365Z,6.00
2019-06-07T18:18:27.510Z,6.53
2019-06-07T18:20:57.504Z,6.53
2019-06-07T18:23:27.405Z,7.13
2019-06-07T18:25:58.555Z,6.73
2019-06-07T18:28:28.838Z,7.40
2019-06-07T18:30:59.015Z,7.27
2019-06-07T18:33:29.060Z,7.10
2019-06-07T18:35:59.503Z,7.07
2019-06-07T18:38:29.428Z,8.50
2019-06-07T18:40:59.673Z,6.93
2019-06-07T18:43:29.560Z,7.13
2019-06-07T18:45:59.486Z,8.23
2019-06-07T18:48:29.412Z,8.63
2019-06-07T18:50:59.392Z,8.20
2019-06-07T18:53:29.277Z,8.47
2019-06-07T18:55:59.258Z,8.50
2019-06-07T18:58:29.182Z,8.20
2019-06-07T19:00:59.113Z,9.87
2019-06-07T19:03:29.027Z,8.20
2019-06-07T19:05:58.934Z,9.07
2019-06-07T19:08:28.847Z,8.27
2019-06-07T19:10:59.097Z,8.63
2019-06-07T19:13:28.994Z,8.40
2019-06-07T19:15:59.695Z,8.37
2019-06-07T19:18:29.643Z,9.43
2019-06-07T19:21:00.652Z,9.10
2019-06-07T19:23:30.715Z,8.30
2019-06-07T19:26:00.770Z,8.97
2019-06-07T19:28:30.749Z,8.37
2019-06-07T19:31:01.328Z,9.87
2019-06-07T19:33:31.304Z,10.27
2019-06-07T19:36:01.766Z,9.47
2019-06-07T19:38:31.849Z,9.53
2019-06-07T19:41:17.611Z,9.50
2019-06-07T19:43:33.431Z,10.47
2019-06-07T19:46:03.378Z,10.17
2019-06-07T19:48:33.309Z,9.83
2019-06-07T19:51:03.285Z,10.13
2019-06-07T19:53:33.207Z,8.40
2019-06-07T19:56:03.433Z,9.60
2019-06-07T19:58:33.440Z,8.90
2019-06-07T20:01:04.782Z,9.43
2019-06-07T20:03:34.778Z,8.90
2019-06-07T20:06:04.706Z,11.10
2019-06-07T20:08:34.670Z,9.80
2019-06-07T20:11:04.938Z,9.70
2019-06-07T20:13:34.954Z,9.70
2019-06-07T20:16:05.194Z,10.30
2019-06-07T20:18:35.171Z,9.73
2019-06-07T20:21:05.116Z,8.60
2019-06-07T20:23:35.060Z,11.47
2019-06-07T20:26:05.015Z,10.47
2019-06-07T20:28:34.972Z,13.13
2019-06-07T20:31:06.083Z,10.13
2019-06-07T20:33:36.097Z,11.07
2019-06-07T20:36:06.038Z,12.03
2019-06-07T20:38:36.788Z,11.97
2019-06-07T20:41:07.432Z,10.80
2019-06-07T20:43:37.497Z,10.27
2019-06-07T20:46:08.222Z,11.47
2019-06-07T20:48:38.312Z,11.60
2019-06-07T20:51:08.779Z,14.97
2019-06-07T20:53:38.800Z,11.30
2019-06-07T20:56:09.291Z,12.30
2019-06-07T20:58:39.289Z,12.80
2019-06-07T21:01:09.224Z,12.90
2019-06-07T21:03:39.164Z,12.60
2019-06-07T21:06:09.989Z,14.10
2019-06-07T21:08:40.025Z,14.50
2019-06-07T21:11:09.959Z,12.80
2019-06-07T21:13:39.874Z,13.83
2019-06-07T21:16:10.463Z,13.47
2019-06-07T21:18:40.442Z,13.37
2019-06-07T21:21:10.665Z,12.20
2019-06-07T21:23:40.612Z,14.10
2019-06-07T21:26:11.058Z,13.97
2019-06-07T21:28:41.322Z,14.43
2019-06-07T21:31:12.468Z,13.53
2019-06-07T21:33:42.478Z,11.80
2019-06-07T21:36:12.445Z,10.37
2019-06-07T21:38:42.343Z,9.57
2019-06-07T21:41:12.569Z,7.97
2019-06-07T21:43:42.733Z,10.60
2019-06-07T21:46:19.966Z,9.13
2019-06-07T21:48:44.391Z,10.07
2019-06-07T21:51:14.404Z,8.57
2019-06-07T21:53:44.424Z,8.57
2019-06-07T21:56:14.477Z,10.27
2019-06-07T21:58:44.547Z,6.97
2019-06-07T22:01:17.258Z,7.80
2019-06-07T22:03:47.177Z,8.23
2019-06-07T22:06:17.097Z,8.03
2019-06-07T22:08:47.017Z,7.50
2019-06-07T22:11:16.971Z,7.90
2019-06-07T22:13:46.893Z,9.60
2019-06-07T22:16:28.423Z,6.93
2019-06-07T22:18:48.407Z,11.23
2019-06-07T22:21:18.358Z,6.57
2019-06-07T22:23:48.287Z,12.70
2019-06-07T22:26:18.271Z,7.87
2019-06-07T22:28:48.209Z,8.43
2019-06-07T22:31:19.252Z,11.47
2019-06-07T22:33:49.234Z,7.60
2019-06-07T22:36:19.468Z,8.30
2019-06-07T22:38:49.489Z,6.20
2019-06-07T22:41:19.410Z,17.43
2019-06-07T22:43:49.341Z,4.77
2019-06-07T22:46:19.369Z,9.90
2019-06-07T22:48:49.284Z,5.63
2019-06-07T22:51:19.216Z,10.63
2019-06-07T22:53:49.095Z,3.63
2019-06-07T22:56:37.967Z,8.47
2019-06-07T22:59:09.003Z,7.60
2019-06-07T23:01:39.533Z,5.70
2019-06-07T23:04:10.443Z,10.73
2019-06-07T23:06:41.231Z,5.67
2019-06-07T23:09:11.159Z,5.00
2019-06-07T23:11:41.083Z,5.40
2019-06-07T23:14:11.221Z,4.10
2019-06-07T23:16:54.803Z,4.33
2019-06-07T23:19:13.789Z,7.90
2019-06-07T23:21:43.769Z,1.93
2019-06-07T23:24:14.164Z,4.00
2019-06-07T23:26:44.165Z,5.27
2019-06-07T23:29:14.538Z,3.53
2019-06-07T23:31:44.451Z,6.30
2019-06-07T23:34:14.731Z,5.70
2019-06-07T23:36:44.683Z,3.20
2019-06-07T23:39:15.392Z,3.70
2019-06-07T23:41:45.414Z,3.63
2019-06-07T23:44:15.400Z,2.83
2019-06-07T23:46:45.231Z,11.50
2019-06-07T23:49:15.551Z,4.57
2019-06-07T23:51:45.425Z,3.80
2019-06-07T23:54:15.696Z,7.10
2019-06-07T23:56:45.724Z,9.13
2019-06-07T23:59:16.109Z,3.03
